This is the latest recevied weather packets stored in our database for station/object SP6PGH-13. If no packets are shown the sender has not sent any weather packets the latest 10 day(s).
| Time | Temp. | Humidity | Pressure | Rain* | Wind** | Luminosity | Snow |
|---|---|---|---|---|---|---|---|
| 1777544807 | 15° C | 30% | 1016.6 hPa | - | - | 732 W/m² | - |
| 1777543906 | 13.89° C | 34% | 1016.8 hPa | - | - | 504 W/m² | - |
| 1777543005 | 14.44° C | 33% | 1016.9 hPa | - | - | 562 W/m² | - |
| 1777542104 | 13.33° C | 35% | 1017.1 hPa | - | - | 711 W/m² | - |
| 1777541203 | 13.33° C | 34% | 1017.2 hPa | - | - | 664 W/m² | - |
| 1777540302 | 13.33° C | 32% | 1017.4 hPa | - | - | 659 W/m² | - |
| 1777539401 | 12.78° C | 33% | 1017.4 hPa | - | - | 635 W/m² | - |
| 1777538500 | 12.78° C | 32% | 1017.5 hPa | - | - | 602 W/m² | - |
| 1777537599 | 12.22° C | 30% | 1017.4 hPa | - | - | 574 W/m² | - |
| 1777536698 | 11.67° C | 32% | 1017.5 hPa | - | - | 537 W/m² | - |
| 1777535797 | 11.11° C | 38% | 1017.5 hPa | - | - | 483 W/m² | - |
| 1777534896 | 10.56° C | 39% | 1017.5 hPa | - | - | 455 W/m² | - |
| 1777533995 | 10° C | 42% | 1017.5 hPa | - | - | 411 W/m² | - |
| 1777533094 | 9.44° C | 42% | 1017.4 hPa | - | - | 370 W/m² | - |
| 1777531288 | 7.78° C | 49% | 1017.5 hPa | - | - | 279 W/m² | - |
| 1777530387 | 6.11° C | 51% | 1017.5 hPa | - | - | 53 W/m² | - |
| 1777529486 | 4.44° C | 57% | 1017.5 hPa | - | - | 50 W/m² | - |
| 1777528585 | 3.33° C | 61% | 1017.6 hPa | - | - | 49 W/m² | - |
| 1777527684 | 2.22° C | 66% | 1017.6 hPa | - | - | 37 W/m² | - |
| 1777526783 | 1.67° C | 68% | 1017.7 hPa | - | - | 35 W/m² | - |
| 1777525882 | 0.56° C | 74% | 1017.7 hPa | - | - | 32 W/m² | - |
| 1777524981 | 0° C | 77% | 1017.6 hPa | - | - | 29 W/m² | - |
| 1777524080 | -0.56° C | 79% | 1017.5 hPa | - | - | 26 W/m² | - |
| 1777523178 | -2.22° C | 84% | 1017.4 hPa | - | - | 21 W/m² | - |
| 1777522277 | -3.33° C | 88% | 1017.3 hPa | - | - | 17 W/m² | - |
* Rain since midnight (hover to see other rain measurements)
** Current wind speed in m/s (hover to see current wind gust speed)